sensor_id;sensor_type;location;lat;lon;timestamp;pressure;altitude;pressure_sealevel;temperature;humidity
39405;BME280;25121;51.090;17.038;2023-04-01T00:00:25;98241.88;;;11.07;70.01
39405;BME280;25121;51.090;17.038;2023-04-01T00:01:46;98236.50;;;11.07;69.94
39405;BME280;25121;51.090;17.038;2023-04-01T00:03:08;98236.28;;;11.08;70.15
39405;BME280;25121;51.090;17.038;2023-04-01T00:04:29;98230.91;;;11.08;70.19
39405;BME280;25121;51.090;17.038;2023-04-01T00:05:52;98238.72;;;11.10;69.91
39405;BME280;25121;51.090;17.038;2023-04-01T00:07:15;98227.16;;;11.09;70.04
39405;BME280;25121;51.090;17.038;2023-04-01T00:08:37;98234.56;;;11.14;70.33
39405;BME280;25121;51.090;17.038;2023-04-01T00:09:59;98236.66;;;11.12;70.06
39405;BME280;25121;51.090;17.038;2023-04-01T00:11:23;98228.78;;;11.10;69.95
39405;BME280;25121;51.090;17.038;2023-04-01T00:12:52;98222.84;;;11.08;70.00
39405;BME280;25121;51.090;17.038;2023-04-01T00:14:16;98219.91;;;11.10;70.00
39405;BME280;25121;51.090;17.038;2023-04-01T00:15:48;98233.91;;;11.18;69.77
39405;BME280;25121;51.090;17.038;2023-04-01T00:17:09;98234.25;;;11.22;69.91
39405;BME280;25121;51.090;17.038;2023-04-01T00:18:33;98223.34;;;11.17;69.80
39405;BME280;25121;51.090;17.038;2023-04-01T00:19:56;98223.34;;;11.17;69.67
39405;BME280;25121;51.090;17.038;2023-04-01T00:21:18;98228.06;;;11.21;69.38
39405;BME280;25121;51.090;17.038;2023-04-01T00:22:41;98228.66;;;11.24;69.71
39405;BME280;25121;51.090;17.038;2023-04-01T00:24:03;98225.38;;;11.21;69.29
39405;BME280;25121;51.090;17.038;2023-04-01T00:25:25;98219.19;;;11.21;69.19
39405;BME280;25121;51.090;17.038;2023-04-01T00:26:49;98216.50;;;11.21;69.44
39405;BME280;25121;51.090;17.038;2023-04-01T00:28:13;98216.69;;;11.19;69.26
39405;BME280;25121;51.090;17.038;2023-04-01T00:29:36;98225.16;;;11.23;69.10
39405;BME280;25121;51.090;17.038;2023-04-01T00:31:04;98229.13;;;11.20;69.02
39405;BME280;25121;51.090;17.038;2023-04-01T00:32:26;98234.63;;;11.26;69.16
39405;BME280;25121;51.090;17.038;2023-04-01T00:33:48;98219.38;;;11.19;69.10
39405;BME280;25121;51.090;17.038;2023-04-01T00:35:12;98227.59;;;11.25;69.18
39405;BME280;25121;51.090;17.038;2023-04-01T00:36:34;98221.25;;;11.19;69.22
39405;BME280;25121;51.090;17.038;2023-04-01T00:37:57;98231.34;;;11.24;69.08
39405;BME280;25121;51.090;17.038;2023-04-01T00:39:19;98218.56;;;11.19;69.21
39405;BME280;25121;51.090;17.038;2023-04-01T00:40:43;98227.00;;;11.23;69.08
39405;BME280;25121;51.090;17.038;2023-04-01T00:42:08;98236.06;;;11.28;69.39
39405;BME280;25121;51.090;17.038;2023-04-01T00:43:39;98230.69;;;11.28;69.10
39405;BME280;25121;51.090;17.038;2023-04-01T00:45:27;98223.13;;;11.18;69.17
39405;BME280;25121;51.090;17.038;2023-04-01T00:46:51;98218.13;;;11.22;68.96
39405;BME280;25121;51.090;17.038;2023-04-01T00:48:19;98221.63;;;11.23;69.05
39405;BME280;25121;51.090;17.038;2023-04-01T00:49:49;98229.25;;;11.26;68.91
39405;BME280;25121;51.090;17.038;2023-04-01T00:51:21;98215.06;;;11.18;69.44
39405;BME280;25121;51.090;17.038;2023-04-01T00:52:44;98222.47;;;11.23;69.12
39405;BME280;25121;51.090;17.038;2023-04-01T00:54:08;98228.00;;;11.28;69.17
39405;BME280;25121;51.090;17.038;2023-04-01T00:55:35;98210.72;;;11.17;69.14
39405;BME280;25121;51.090;17.038;2023-04-01T00:57:00;98220.59;;;11.24;68.95
39405;BME280;25121;51.090;17.038;2023-04-01T00:58:27;98215.88;;;11.19;69.04
39405;BME280;25121;51.090;17.038;2023-04-01T00:59:55;98225.72;;;11.25;69.02
39405;BME280;25121;51.090;17.038;2023-04-01T01:01:20;98220.22;;;11.20;68.76
39405;BME280;25121;51.090;17.038;2023-04-01T01:02:45;98218.78;;;11.17;68.87
39405;BME280;25121;51.090;17.038;2023-04-01T01:04:23;98224.56;;;11.21;68.94
39405;BME280;25121;51.090;17.038;2023-04-01T01:05:57;98227.25;;;11.21;68.80
39405;BME280;25121;51.090;17.038;2023-04-01T01:07:29;98229.47;;;11.24;68.94
39405;BME280;25121;51.090;17.038;2023-04-01T01:09:23;98234.03;;;11.24;69.21
39405;BME280;25121;51.090;17.038;2023-04-01T01:10:49;98236.47;;;11.25;69.04
39405;BME280;25121;51.090;17.038;2023-04-01T01:12:13;98230.91;;;11.27;68.96
39405;BME280;25121;51.090;17.038;2023-04-01T01:13:43;98236.06;;;11.28;69.33
39405;BME280;25121;51.090;17.038;2023-04-01T01:15:17;98236.88;;;11.29;69.40
39405;BME280;25121;51.090;17.038;2023-04-01T01:16:44;98230.44;;;11.30;69.09
39405;BME280;25121;51.090;17.038;2023-04-01T01:18:15;98229.41;;;11.31;68.68
39405;BME280;25121;51.090;17.038;2023-04-01T01:19:45;98227.16;;;11.28;69.15
39405;BME280;25121;51.090;17.038;2023-04-01T01:25:19;98220.94;;;11.27;69.10
39405;BME280;25121;51.090;17.038;2023-04-01T01:26:54;98226.94;;;11.29;69.24
39405;BME280;25121;51.090;17.038;2023-04-01T01:28:28;98221.75;;;11.28;69.36
39405;BME280;25121;51.090;17.038;2023-04-01T01:30:21;98222.81;;;11.27;69.01
39405;BME280;25121;51.090;17.038;2023-04-01T01:31:51;98220.50;;;11.30;69.11
39405;BME280;25121;51.090;17.038;2023-04-01T01:33:40;98230.44;;;11.30;69.32
39405;BME280;25121;51.090;17.038;2023-04-01T01:35:16;98223.44;;;11.29;69.42
39405;BME280;25121;51.090;17.038;2023-04-01T01:36:43;98232.66;;;11.33;69.43
39405;BME280;25121;51.090;17.038;2023-04-01T01:38:08;98219.22;;;11.33;69.29
39405;BME280;25121;51.090;17.038;2023-04-01T01:39:33;98214.53;;;11.28;69.59
39405;BME280;25121;51.090;17.038;2023-04-01T01:40:59;98235.97;;;11.35;69.24
39405;BME280;25121;51.090;17.038;2023-04-01T01:42:25;98233.28;;;11.35;69.31
39405;BME280;25121;51.090;17.038;2023-04-01T01:43:48;98223.94;;;11.37;69.48
39405;BME280;25121;51.090;17.038;2023-04-01T01:45:16;98228.28;;;11.38;69.57
39405;BME280;25121;51.090;17.038;2023-04-01T01:46:41;98219.41;;;11.38;69.59
39405;BME280;25121;51.090;17.038;2023-04-01T01:48:05;98227.22;;;11.39;69.60
39405;BME280;25121;51.090;17.038;2023-04-01T01:49:30;98226.19;;;11.40;69.62
39405;BME280;25121;51.090;17.038;2023-04-01T01:50:55;98223.25;;;11.42;69.67
39405;BME280;25121;51.090;17.038;2023-04-01T01:52:17;98230.50;;;11.41;69.69
39405;BME280;25121;51.090;17.038;2023-04-01T01:53:39;98221.38;;;11.42;69.66
39405;BME280;25121;51.090;17.038;2023-04-01T01:55:03;98223.84;;;11.44;69.69
39405;BME280;25121;51.090;17.038;2023-04-01T01:56:38;98215.66;;;11.39;69.70
39405;BME280;25121;51.090;17.038;2023-04-01T01:58:07;98216.84;;;11.43;69.73
39405;BME280;25121;51.090;17.038;2023-04-01T01:59:33;98213.09;;;11.44;69.64
39405;BME280;25121;51.090;17.038;2023-04-01T02:00:59;98217.41;;;11.45;69.36
39405;BME280;25121;51.090;17.038;2023-04-01T02:02:24;98214.50;;;11.47;69.81
39405;BME280;25121;51.090;17.038;2023-04-01T02:03:48;98210.88;;;11.41;69.37
39405;BME280;25121;51.090;17.038;2023-04-01T02:05:16;98210.41;;;11.44;69.39
39405;BME280;25121;51.090;17.038;2023-04-01T02:06:46;98213.09;;;11.44;69.47
39405;BME280;25121;51.090;17.038;2023-04-01T02:08:12;98210.88;;;11.41;69.34
39405;BME280;25121;51.090;17.038;2023-04-01T02:09:35;98218.69;;;11.42;69.61
39405;BME280;25121;51.090;17.038;2023-04-01T02:11:00;98218.69;;;11.42;69.75
39405;BME280;25121;51.090;17.038;2023-04-01T02:12:28;98218.69;;;11.42;69.84
39405;BME280;25121;51.090;17.038;2023-04-01T02:13:54;98212.75;;;11.40;70.00
39405;BME280;25121;51.090;17.038;2023-04-01T02:15:18;98211.47;;;11.43;69.91
39405;BME280;25121;51.090;17.038;2023-04-01T02:16:47;98219.53;;;11.43;69.76
39405;BME280;25121;51.090;17.038;2023-04-01T02:18:12;98217.66;;;11.43;69.88
39405;BME280;25121;51.090;17.038;2023-04-01T02:19:38;98213.91;;;11.45;69.71
39405;BME280;25121;51.090;17.038;2023-04-01T02:21:03;98211.00;;;11.46;69.83
39405;BME280;25121;51.090;17.038;2023-04-01T02:22:29;98196.97;;;11.44;69.74
39405;BME280;25121;51.090;17.038;2023-04-01T02:23:53;98208.91;;;11.48;69.79
39405;BME280;25121;51.090;17.038;2023-04-01T02:25:18;98200.59;;;11.50;69.43
39405;BME280;25121;51.090;17.038;2023-04-01T02:26:41;98201.44;;;11.50;69.47
39405;BME280;25121;51.090;17.038;2023-04-01T02:28:06;98207.63;;;11.51;69.32
39405;BME280;25121;51.090;17.038;2023-04-01T02:29:29;98196.06;;;11.50;69.31
39405;BME280;25121;51.090;17.038;2023-04-01T02:30:52;98208.47;;;11.51;69.46
39405;BME280;25121;51.090;17.038;2023-04-01T02:32:14;98199.09;;;11.54;69.45
39405;BME280;25121;51.090;17.038;2023-04-01T02:33:40;98202.63;;;11.54;69.60
39405;BME280;25121;51.090;17.038;2023-04-01T02:35:04;98196.22;;;11.55;69.41
39405;BME280;25121;51.090;17.038;2023-04-01T02:36:26;98199.91;;;11.54;69.24
39405;BME280;25121;51.090;17.038;2023-04-01T02:37:52;98205.09;;;11.56;69.35
39405;BME280;25121;51.090;17.038;2023-04-01T02:39:14;98204.84;;;11.57;69.42
39405;BME280;25121;51.090;17.038;2023-04-01T02:40:48;98201.59;;;11.55;69.51
39405;BME280;25121;51.090;17.038;2023-04-01T02:42:10;98199.72;;;11.56;69.38
39405;BME280;25121;51.090;17.038;2023-04-01T02:43:32;98203.22;;;11.56;69.45
39405;BME280;25121;51.090;17.038;2023-04-01T02:44:54;98200.53;;;11.56;69.47
39405;BME280;25121;51.090;17.038;2023-04-01T02:46:16;98199.72;;;11.56;69.43
39405;BME280;25121;51.090;17.038;2023-04-01T02:47:39;98206.72;;;11.57;69.42
39405;BME280;25121;51.090;17.038;2023-04-01T02:49:00;98200.16;;;11.53;69.37
39405;BME280;25121;51.090;17.038;2023-04-01T02:50:23;98206.72;;;11.57;69.16
39405;BME280;25121;51.090;17.038;2023-04-01T02:51:45;98204.28;;;11.55;69.23
39405;BME280;25121;51.090;17.038;2023-04-01T02:53:09;98206.97;;;11.55;69.32
39405;BME280;25121;51.090;17.038;2023-04-01T02:54:30;98215.03;;;11.55;69.32
39405;BME280;25121;51.090;17.038;2023-04-01T02:55:53;98217.72;;;11.55;69.31
39405;BME280;25121;51.090;17.038;2023-04-01T02:57:14;98208.81;;;11.55;69.46
39405;BME280;25121;51.090;17.038;2023-04-01T02:58:39;98215.84;;;11.56;69.33
39405;BME280;25121;51.090;17.038;2023-04-01T03:00:00;98225.78;;;11.55;69.27
39405;BME280;25121;51.090;17.038;2023-04-01T03:01:22;98217.47;;;11.57;69.26
39405;BME280;25121;51.090;17.038;2023-04-01T03:02:44;98223.66;;;11.57;69.09
39405;BME280;25121;51.090;17.038;2023-04-01T03:04:06;98219.94;;;11.58;69.21
39405;BME280;25121;51.090;17.038;2023-04-01T03:05:28;98220.56;;;11.60;69.38
39405;BME280;25121;51.090;17.038;2023-04-01T03:06:50;98217.88;;;11.60;69.58
39405;BME280;25121;51.090;17.038;2023-04-01T03:08:14;98221.38;;;11.61;69.62
39405;BME280;25121;51.090;17.038;2023-04-01T03:09:36;98221.13;;;11.62;69.41
39405;BME280;25121;51.090;17.038;2023-04-01T03:10:57;98226.28;;;11.64;69.48
39405;BME280;25121;51.090;17.038;2023-04-01T03:12:20;98220.91;;;11.64;69.42
39405;BME280;25121;51.090;17.038;2023-04-01T03:13:44;98224.41;;;11.64;69.24
39405;BME280;25121;51.090;17.038;2023-04-01T03:15:06;98222.53;;;11.65;69.43
39405;BME280;25121;51.090;17.038;2023-04-01T03:16:32;98224.41;;;11.64;69.18
39405;BME280;25121;51.090;17.038;2023-04-01T03:17:54;98227.91;;;11.65;69.13
39405;BME280;25121;51.090;17.038;2023-04-01T03:19:16;98227.69;;;11.67;69.28
39405;BME280;25121;51.090;17.038;2023-04-01T03:20:38;98229.56;;;11.66;69.16
39405;BME280;25121;51.090;17.038;2023-04-01T03:21:59;98233.91;;;11.67;69.06
39405;BME280;25121;51.090;17.038;2023-04-01T03:23:23;98227.69;;;11.67;69.07
39405;BME280;25121;51.090;17.038;2023-04-01T03:24:46;98230.38;;;11.67;69.02
39405;BME280;25121;51.090;17.038;2023-04-01T03:26:09;98231.00;;;11.69;69.20
39405;BME280;25121;51.090;17.038;2023-04-01T03:27:30;98225.81;;;11.67;68.97
39405;BME280;25121;51.090;17.038;2023-04-01T03:28:53;98233.91;;;11.67;69.09
39405;BME280;25121;51.090;17.038;2023-04-01T03:30:15;98227.09;;;11.64;69.08
39405;BME280;25121;51.090;17.038;2023-04-01T03:31:43;98221.13;;;11.62;69.33
39405;BME280;25121;51.090;17.038;2023-04-01T03:33:05;98227.91;;;11.65;69.32
39405;BME280;25121;51.090;17.038;2023-04-01T03:34:28;98233.28;;;11.65;69.16
39405;BME280;25121;51.090;17.038;2023-04-01T03:35:49;98227.09;;;11.64;69.13
39405;BME280;25121;51.090;17.038;2023-04-01T03:37:13;98231.88;;;11.62;69.50
39405;BME280;25121;51.090;17.038;2023-04-01T03:38:37;98228.63;;;11.60;69.88
39405;BME280;25121;51.090;17.038;2023-04-01T03:39:59;98236.69;;;11.60;69.77
39405;BME280;25121;51.090;17.038;2023-04-01T03:41:21;98236.09;;;11.58;69.76
39405;BME280;25121;51.090;17.038;2023-04-01T03:42:42;98224.94;;;11.55;69.77
39405;BME280;25121;51.090;17.038;2023-04-01T03:44:05;98234.91;;;11.54;69.97
39405;BME280;25121;51.090;17.038;2023-04-01T03:45:26;98234.06;;;11.54;69.90
39405;BME280;25121;51.090;17.038;2023-04-01T03:46:49;98233.72;;;11.50;70.14
39405;BME280;25121;51.090;17.038;2023-04-01T03:48:10;98224.91;;;11.43;70.23
39405;BME280;25121;51.090;17.038;2023-04-01T03:49:33;98238.72;;;11.47;70.55
39405;BME280;25121;51.090;17.038;2023-04-01T03:50:54;98234.63;;;11.44;70.60
39405;BME280;25121;51.090;17.038;2023-04-01T03:52:17;98241.72;;;11.38;70.51
39405;BME280;25121;51.090;17.038;2023-04-01T03:53:39;98243.59;;;11.38;70.83
39405;BME280;25121;51.090;17.038;2023-04-01T03:55:04;98242.41;;;11.34;71.32
39405;BME280;25121;51.090;17.038;2023-04-01T03:56:28;98238.28;;;11.31;71.25
39405;BME280;25121;51.090;17.038;2023-04-01T03:57:49;98246.56;;;11.30;71.51
39405;BME280;25121;51.090;17.038;2023-04-01T03:59:14;98248.09;;;11.26;71.52
39405;BME280;25121;51.090;17.038;2023-04-01T04:00:36;98239.63;;;11.22;72.07
39405;BME280;25121;51.090;17.038;2023-04-01T04:01:58;98251.44;;;11.21;72.11
39405;BME280;25121;51.090;17.038;2023-04-01T04:03:22;98251.91;;;11.18;72.35
39405;BME280;25121;51.090;17.038;2023-04-01T04:04:44;98252.31;;;11.15;72.28
39405;BME280;25121;51.090;17.038;2023-04-01T04:06:11;98237.56;;;11.06;72.35
39405;BME280;25121;51.090;17.038;2023-04-01T04:07:34;98251.16;;;11.11;72.74
39405;BME280;25121;51.090;17.038;2023-04-01T04:09:00;98246.66;;;11.05;73.00
39405;BME280;25121;51.090;17.038;2023-04-01T04:10:23;98253.69;;;11.06;73.20
39405;BME280;25121;51.090;17.038;2023-04-01T04:11:47;98249.56;;;11.03;73.28
39405;BME280;25121;51.090;17.038;2023-04-01T04:13:08;98253.75;;;10.99;73.37
39405;BME280;25121;51.090;17.038;2023-04-01T04:14:37;98248.22;;;10.94;73.74
39405;BME280;25121;51.090;17.038;2023-04-01T04:16:00;98254.19;;;10.96;74.14
39405;BME280;25121;51.090;17.038;2023-04-01T04:17:22;98254.19;;;10.96;74.33
39405;BME280;25121;51.090;17.038;2023-04-01T04:18:44;98255.22;;;10.95;74.56
39405;BME280;25121;51.090;17.038;2023-04-01T04:20:07;98260.84;;;10.93;74.47
39405;BME280;25121;51.090;17.038;2023-04-01T04:21:29;98252.97;;;10.92;74.46
39405;BME280;25121;51.090;17.038;2023-04-01T04:22:52;98252.97;;;10.92;74.37
39405;BME280;25121;51.090;17.038;2023-04-01T04:24:16;98254.25;;;10.89;74.87
39405;BME280;25121;51.090;17.038;2023-04-01T04:25:56;98256.34;;;10.87;75.16
39405;BME280;25121;51.090;17.038;2023-04-01T04:27:22;98264.63;;;10.86;75.04
39405;BME280;25121;51.090;17.038;2023-04-01T04:28:55;98261.94;;;10.86;75.40
39405;BME280;25121;51.090;17.038;2023-04-01T04:30:18;98266.72;;;10.84;75.79
39405;BME280;25121;51.090;17.038;2023-04-01T04:31:40;98261.34;;;10.84;75.75
39405;BME280;25121;51.090;17.038;2023-04-01T04:33:04;98266.09;;;10.82;75.85
39405;BME280;25121;51.090;17.038;2023-04-01T04:34:26;98259.31;;;10.79;75.76
39405;BME280;25121;51.090;17.038;2023-04-01T04:35:49;98255.81;;;10.78;76.06
39405;BME280;25121;51.090;17.038;2023-04-01T04:37:10;98257.06;;;10.76;76.42
39405;BME280;25121;51.090;17.038;2023-04-01T04:38:32;98259.75;;;10.76;76.33
39405;BME280;25121;51.090;17.038;2023-04-01T04:39:59;98255.88;;;10.72;76.60
39405;BME280;25121;51.090;17.038;2023-04-01T04:41:22;98259.16;;;10.74;76.76
39405;BME280;25121;51.090;17.038;2023-04-01T04:42:44;98262.06;;;10.72;76.70
39405;BME280;25121;51.090;17.038;2023-04-01T04:44:09;98262.28;;;10.71;76.50
39405;BME280;25121;51.090;17.038;2023-04-01T04:45:31;98263.56;;;10.68;76.76
39405;BME280;25121;51.090;17.038;2023-04-01T04:46:53;98256.53;;;10.67;76.93
39405;BME280;25121;51.090;17.038;2023-04-01T04:48:18;98265.03;;;10.64;77.13
39405;BME280;25121;51.090;17.038;2023-04-01T04:49:42;98267.72;;;10.64;77.31
39405;BME280;25121;51.090;17.038;2023-04-01T04:51:04;98262.56;;;10.63;77.62
39405;BME280;25121;51.090;17.038;2023-04-01T04:52:25;98263.59;;;10.62;77.62
39405;BME280;25121;51.090;17.038;2023-04-01T04:53:50;98263.59;;;10.62;77.64
39405;BME280;25121;51.090;17.038;2023-04-01T04:55:21;98254.16;;;10.52;78.18
39405;BME280;25121;51.090;17.038;2023-04-01T04:56:59;98259.50;;;10.59;78.13
39405;BME280;25121;51.090;17.038;2023-04-01T04:58:25;98266.50;;;10.60;78.32
39405;BME280;25121;51.090;17.038;2023-04-01T04:59:48;98265.88;;;10.58;78.36
39405;BME280;25121;51.090;17.038;2023-04-01T05:01:18;98266.13;;;10.56;78.54
39405;BME280;25121;51.090;17.038;2023-04-01T05:02:41;98269.41;;;10.59;78.77
39405;BME280;25121;51.090;17.038;2023-04-01T05:04:02;98275.63;;;10.59;78.57
39405;BME280;25121;51.090;17.038;2023-04-01T05:05:24;98272.69;;;10.61;78.85
39405;BME280;25121;51.090;17.038;2023-04-01T05:06:45;98267.75;;;10.57;78.96
39405;BME280;25121;51.090;17.038;2023-04-01T05:08:10;98272.94;;;10.59;79.03
39405;BME280;25121;51.090;17.038;2023-04-01T05:09:37;98272.94;;;10.59;78.85
39405;BME280;25121;51.090;17.038;2023-04-01T05:11:01;98267.56;;;10.59;78.99
39405;BME280;25121;51.090;17.038;2023-04-01T05:12:27;98271.06;;;10.60;79.45
39405;BME280;25121;51.090;17.038;2023-04-01T05:13:51;98269.19;;;10.60;79.25
39405;BME280;25121;51.090;17.038;2023-04-01T05:15:13;98275.63;;;10.59;79.59
39405;BME280;25121;51.090;17.038;2023-04-01T05:16:36;98268.97;;;10.62;79.56
39405;BME280;25121;51.090;17.038;2023-04-01T05:17:58;98271.66;;;10.62;79.49
39405;BME280;25121;51.090;17.038;2023-04-01T05:19:20;98282.16;;;10.63;79.50
39405;BME280;25121;51.090;17.038;2023-04-01T05:20:45;98273.75;;;10.60;79.53
39405;BME280;25121;51.090;17.038;2023-04-01T05:22:08;98279.13;;;10.60;79.55
39405;BME280;25121;51.090;17.038;2023-04-01T05:23:31;98275.38;;;10.61;79.67
39405;BME280;25121;51.090;17.038;2023-04-01T05:24:53;98271.06;;;10.60;79.89
39405;BME280;25121;51.090;17.038;2023-04-01T05:26:17;98278.91;;;10.61;80.17
39405;BME280;25121;51.090;17.038;2023-04-01T05:27:40;98271.88;;;10.60;80.15
39405;BME280;25121;51.090;17.038;2023-04-01T05:29:02;98272.69;;;10.61;80.38
39405;BME280;25121;51.090;17.038;2023-04-01T05:30:25;98268.16;;;10.61;79.97
39405;BME280;25121;51.090;17.038;2023-04-01T05:31:56;98273.75;;;10.60;79.95
39405;BME280;25121;51.090;17.038;2023-04-01T05:33:18;98278.06;;;10.61;80.06
39405;BME280;25121;51.090;17.038;2023-04-01T05:34:41;98267.75;;;10.57;79.83
39405;BME280;25121;51.090;17.038;2023-04-01T05:36:09;98274.09;;;10.63;79.88
39405;BME280;25121;51.090;17.038;2023-04-01T05:37:33;98277.66;;;10.64;80.07
39405;BME280;25121;51.090;17.038;2023-04-01T05:38:56;98271.00;;;10.66;80.10
39405;BME280;25121;51.090;17.038;2023-04-01T05:40:20;98272.63;;;10.67;80.30
39405;BME280;25121;51.090;17.038;2023-04-01T05:41:44;98270.56;;;10.69;80.61
39405;BME280;25121;51.090;17.038;2023-04-01T05:43:06;98277.97;;;10.74;80.45
39405;BME280;25121;51.090;17.038;2023-04-01T05:44:29;98274.81;;;10.77;80.37
39405;BME280;25121;51.090;17.038;2023-04-01T05:45:56;98272.75;;;10.79;80.24
39405;BME280;25121;51.090;17.038;2023-04-01T05:47:39;98267.59;;;10.77;80.27
39405;BME280;25121;51.090;17.038;2023-04-01T05:49:01;98273.97;;;10.83;80.32
39405;BME280;25121;51.090;17.038;2023-04-01T05:50:24;98277.00;;;10.87;80.39
39405;BME280;25121;51.090;17.038;2023-04-01T05:51:48;98281.13;;;10.89;80.56
39405;BME280;25121;51.090;17.038;2023-04-01T05:53:12;98278.00;;;10.92;80.35
39405;BME280;25121;51.090;17.038;2023-04-01T05:54:36;98269.91;;;10.92;80.64
39405;BME280;25121;51.090;17.038;2023-04-01T05:56:02;98273.00;;;10.96;80.41
39405;BME280;25121;51.090;17.038;2023-04-01T05:57:31;98270.75;;;10.93;80.83
39405;BME280;25121;51.090;17.038;2023-04-01T05:58:54;98274.63;;;10.97;80.96
39405;BME280;25121;51.090;17.038;2023-04-01T06:00:17;98279.34;;;11.02;80.87
39405;BME280;25121;51.090;17.038;2023-04-01T06:01:41;98278.91;;;11.05;80.94
39405;BME280;25121;51.090;17.038;2023-04-01T06:03:03;98286.75;;;11.06;80.90
39405;BME280;25121;51.090;17.038;2023-04-01T06:04:26;98272.56;;;10.99;80.95
39405;BME280;25121;51.090;17.038;2023-04-01T06:05:51;98288.19;;;11.09;80.76
39405;BME280;25121;51.090;17.038;2023-04-01T06:07:15;98277.41;;;11.09;80.72
39405;BME280;25121;51.090;17.038;2023-04-01T06:08:38;98290.03;;;11.08;80.54
39405;BME280;25121;51.090;17.038;2023-04-01T06:09:59;98290.03;;;11.08;80.84
39405;BME280;25121;51.090;17.038;2023-04-01T06:11:29;98290.88;;;11.09;80.85
39405;BME280;25121;51.090;17.038;2023-04-01T06:13:03;98279.56;;;11.00;80.53
39405;BME280;25121;51.090;17.038;2023-04-01T06:14:33;98288.63;;;11.06;80.62
39405;BME280;25121;51.090;17.038;2023-04-01T06:16:06;98293.53;;;11.09;80.79
39405;BME280;25121;51.090;17.038;2023-04-01T06:17:37;98292.50;;;11.10;80.83
39405;BME280;25121;51.090;17.038;2023-04-01T06:19:18;98296.84;;;11.11;80.62
39405;BME280;25121;51.090;17.038;2023-04-01T06:20:47;98286.97;;;11.05;80.53
39405;BME280;25121;51.090;17.038;2023-04-01T06:22:38;98297.66;;;11.11;80.65
39405;BME280;25121;51.090;17.038;2023-04-01T06:24:23;98294.97;;;11.11;80.66
39405;BME280;25121;51.090;17.038;2023-04-01T06:26:03;98298.47;;;11.12;80.52
39405;BME280;25121;51.090;17.038;2023-04-01T06:27:40;98296.84;;;11.11;80.53
39405;BME280;25121;51.090;17.038;2023-04-01T06:29:23;98309.16;;;11.18;80.73
39405;BME280;25121;51.090;17.038;2023-04-01T06:30:55;98303.56;;;11.20;80.62
39405;BME280;25121;51.090;17.038;2023-04-01T06:32:59;98305.41;;;11.19;80.63
39405;BME280;25121;51.090;17.038;2023-04-01T06:34:53;98289.59;;;11.11;80.59
39405;BME280;25121;51.090;17.038;2023-04-01T06:38:38;98302.06;;;11.24;80.59
39405;BME280;25121;51.090;17.038;2023-04-01T06:40:31;98309.94;;;11.26;80.80
39405;BME280;25121;51.090;17.038;2023-04-01T06:42:23;98303.28;;;11.28;80.81
39405;BME280;25121;51.090;17.038;2023-04-01T06:44:11;98306.31;;;11.32;80.86
39405;BME280;25121;51.090;17.038;2023-04-01T06:46:03;98296.84;;;11.29;80.73
39405;BME280;25121;51.090;17.038;2023-04-01T06:47:58;98295.13;;;11.35;80.46
39405;BME280;25121;51.090;17.038;2023-04-01T06:49:50;98301.69;;;11.39;80.60
39405;BME280;25121;51.090;17.038;2023-04-01T06:51:27;98308.44;;;11.48;80.56
39405;BME280;25121;51.090;17.038;2023-04-01T06:53:20;98312.16;;;11.47;80.28
39405;BME280;25121;51.090;17.038;2023-04-01T06:57:21;98309.03;;;11.50;80.55
39405;BME280;25121;51.090;17.038;2023-04-01T06:59:08;98299.53;;;11.48;80.67
39405;BME280;25121;51.090;17.038;2023-04-01T07:00:42;98305.66;;;11.55;80.75
39405;BME280;25121;51.090;17.038;2023-04-01T07:02:21;98307.44;;;11.61;80.63
39405;BME280;25121;51.090;17.038;2023-04-01T07:03:51;98313.78;;;11.67;80.57
39405;BME280;25121;51.090;17.038;2023-04-01T07:05:16;98312.16;;;11.66;80.49
39405;BME280;25121;51.090;17.038;2023-04-01T07:06:47;98300.56;;;11.65;80.53
39405;BME280;25121;51.090;17.038;2023-04-01T07:08:22;98309.75;;;11.76;80.51
39405;BME280;25121;51.090;17.038;2023-04-01T07:09:50;98309.75;;;11.76;80.43
39405;BME280;25121;51.090;17.038;2023-04-01T07:11:26;98311.53;;;11.82;80.36
39405;BME280;25121;51.090;17.038;2023-04-01T07:13:17;98325.16;;;11.87;80.27
39405;BME280;25121;51.090;17.038;2023-04-01T07:14:56;98304.66;;;11.86;80.43
39405;BME280;25121;51.090;17.038;2023-04-01T07:16:34;98297.44;;;11.87;80.09
39405;BME280;25121;51.090;17.038;2023-04-01T07:18:04;98299.78;;;11.95;80.01
39405;BME280;25121;51.090;17.038;2023-04-01T07:19:33;98317.53;;;12.02;79.95
39405;BME280;25121;51.090;17.038;2023-04-01T07:21:29;98306.75;;;12.02;79.88
39405;BME280;25121;51.090;17.038;2023-04-01T07:23:10;98302.31;;;12.08;79.89
39405;BME280;25121;51.090;17.038;2023-04-01T07:25:12;98305.97;;;12.14;79.47
39405;BME280;25121;51.090;17.038;2023-04-01T07:26:38;98315.84;;;12.20;79.36
39405;BME280;25121;51.090;17.038;2023-04-01T07:28:05;98312.44;;;12.24;79.59
39405;BME280;25121;51.090;17.038;2023-04-01T07:29:32;98324.53;;;12.34;79.16
39405;BME280;25121;51.090;17.038;2023-04-01T07:31:07;98307.78;;;12.32;79.04
39405;BME280;25121;51.090;17.038;2023-04-01T07:34:40;98316.66;;;12.32;78.82
39405;BME280;25121;51.090;17.038;2023-04-01T07:36:18;98322.22;;;12.37;78.95
39405;BME280;25121;51.090;17.038;2023-04-01T07:38:03;98330.03;;;12.39;78.80
39405;BME280;25121;51.090;17.038;2023-04-01T07:39:40;98322.91;;;12.33;78.82
39405;BME280;25121;51.090;17.038;2023-04-01T07:41:19;98330.88;;;12.39;78.58
39405;BME280;25121;51.090;17.038;2023-04-01T07:43:02;98316.66;;;12.32;78.85
39405;BME280;25121;51.090;17.038;2023-04-01T07:45:01;98329.09;;;12.33;78.85
39405;BME280;25121;51.090;17.038;2023-04-01T07:47:25;98331.56;;;12.35;78.76
39405;BME280;25121;51.090;17.038;2023-04-01T07:48:56;98329.91;;;12.34;78.81